Time;durP1;ratioP1;P1;durP2;ratioP2;P2;SDS_P1;SDS_P2;PMS_P1;PMS_P2;Temp;Humidity;BMP_temperature;BMP_pressure;BME280_temperature;BME280_humidity;BME280_pressure;Samples;Min_cycle;Max_cycle;Signal;HPM_P1;HPM_P2
2021/06/03 00:00:53;;;;;;;8.00;6.78;;;16.90;84.10;;;;;;5072597;28;20587;-39
2021/06/03 00:03:25;;;;;;;8.40;7.63;;;16.90;84.40;;;;;;5072602;28;20246;-38
2021/06/03 00:05:54;;;;;;;9.40;8.35;;;16.80;84.70;;;;;;5072245;28;20330;-39
2021/06/03 00:08:24;;;;;;;7.63;6.95;;;16.80;85.10;;;;;;5072185;28;20203;-39
2021/06/03 00:10:54;;;;;;;7.93;7.22;;;16.70;85.20;;;;;;5071903;28;20211;-38
2021/06/03 00:13:24;;;;;;;11.18;7.72;;;16.70;85.40;;;;;;5072448;28;20313;-39
2021/06/03 00:15:53;;;;;;;8.13;7.35;;;16.60;85.60;;;;;;5072249;28;20203;-39
2021/06/03 00:18:23;;;;;;;7.90;6.65;;;16.60;85.80;;;;;;5072196;28;20220;-39
2021/06/03 00:20:51;;;;;;;7.63;6.93;;;16.60;86.20;;;;;;5071990;28;20306;-39
2021/06/03 00:23:19;;;;;;;7.78;7.05;;;16.50;86.60;;;;;;5072367;28;20208;-39
2021/06/03 00:25:47;;;;;;;7.88;7.15;;;16.40;86.80;;;;;;5072149;28;20298;-39
2021/06/03 00:28:14;;;;;;;8.18;7.38;;;16.40;86.90;;;;;;5072118;28;20243;-39
2021/06/03 00:30:42;;;;;;;7.35;6.65;;;16.40;86.90;;;;;;5072012;28;20208;-39
2021/06/03 00:33:09;;;;;;;8.75;7.88;;;16.30;86.70;;;;;;5072070;28;20242;-39
2021/06/03 00:35:38;;;;;;;8.48;7.70;;;16.40;87.00;;;;;;5071997;28;20203;-39
2021/06/03 00:38:06;;;;;;;7.82;7.05;;;16.40;87.40;;;;;;5072242;28;20294;-40
2021/06/03 00:40:33;;;;;;;8.05;7.35;;;16.30;87.70;;;;;;5071784;28;20662;-40
2021/06/03 00:43:01;;;;;;;7.80;7.00;;;16.30;88.00;;;;;;5071830;28;20208;-39
2021/06/03 00:45:32;;;;;;;8.65;7.75;;;16.30;88.50;;;;;;5071760;28;20302;-39
2021/06/03 00:48:00;;;;;;;7.55;6.95;;;16.20;88.80;;;;;;5072017;28;20212;-41
2021/06/03 00:50:30;;;;;;;8.13;7.32;;;16.20;89.70;;;;;;5071950;28;20211;-39
2021/06/03 00:53:01;;;;;;;8.13;7.38;;;16.10;89.30;;;;;;5072084;28;20334;-39
2021/06/03 00:55:28;;;;;;;8.05;7.25;;;16.10;89.60;;;;;;5071722;28;20741;-39
2021/06/03 00:57:56;;;;;;;8.18;7.47;;;16.10;90.00;;;;;;5071639;28;20231;-39
2021/06/03 01:00:23;;;;;;;9.73;7.47;;;16.00;90.10;;;;;;5072124;28;20292;-39
2021/06/03 01:02:51;;;;;;;8.25;7.00;;;15.90;90.20;;;;;;5072181;28;20242;-40
2021/06/03 01:05:21;;;;;;;8.02;7.32;;;15.90;90.40;;;;;;5071835;28;20330;-39
2021/06/03 01:07:50;;;;;;;8.55;7.75;;;15.90;90.60;;;;;;5071951;28;20291;-40
2021/06/03 01:10:22;;;;;;;8.25;7.53;;;15.80;90.70;;;;;;5071832;28;20207;-38
2021/06/03 01:12:56;;;;;;;8.45;7.65;;;15.80;90.90;;;;;;5071686;28;20318;-39
2021/06/03 01:15:26;;;;;;;8.57;7.78;;;15.70;91.00;;;;;;5071987;28;20373;-39
2021/06/03 01:17:54;;;;;;;8.15;7.45;;;15.70;91.10;;;;;;5072076;28;20298;-39
2021/06/03 01:20:23;;;;;;;8.35;7.50;;;15.70;91.20;;;;;;5071693;28;20286;-39
2021/06/03 01:22:58;;;;;;;8.18;7.43;;;15.70;91.40;;;;;;5074493;28;20214;-39
2021/06/03 01:25:28;;;;;;;9.07;8.07;;;15.70;91.50;;;;;;5075706;28;20213;-38
2021/06/03 01:27:56;;;;;;;10.82;7.75;;;15.70;91.70;;;;;;5075937;28;20270;-39
2021/06/03 01:30:26;;;;;;;8.40;7.30;;;15.70;91.80;;;;;;5075898;28;20321;-39
2021/06/03 01:32:56;;;;;;;12.30;7.80;;;15.60;91.80;;;;;;5075565;28;20257;-38
2021/06/03 01:35:26;;;;;;;8.52;7.82;;;15.70;91.90;;;;;;5075655;28;20310;-39
2021/06/03 01:37:54;;;;;;;8.35;7.65;;;15.70;92.00;;;;;;5075492;28;20207;-39
2021/06/03 01:40:26;;;;;;;11.25;8.15;;;15.70;92.10;;;;;;5075478;28;20256;-39
2021/06/03 01:42:56;;;;;;;8.00;7.30;;;15.60;92.10;;;;;;5075670;28;20199;-36
2021/06/03 01:45:24;;;;;;;8.35;7.20;;;15.60;92.20;;;;;;5075444;28;20680;-39
2021/06/03 01:47:52;;;;;;;7.70;6.90;;;15.70;92.40;;;;;;5075227;28;20215;-40
2021/06/03 01:50:21;;;;;;;7.85;7.15;;;15.60;92.50;;;;;;5075317;28;20218;-38
2021/06/03 01:52:49;;;;;;;8.00;7.30;;;15.60;92.60;;;;;;5075297;28;20338;-37
2021/06/03 01:55:17;;;;;;;8.43;7.38;;;15.50;92.80;;;;;;5075087;28;20203;-38
2021/06/03 01:57:46;;;;;;;7.63;7.03;;;15.50;92.90;;;;;;5075391;28;20211;-39
2021/06/03 02:00:18;;;;;;;9.85;7.05;;;15.50;93.10;;;;;;5074947;28;20299;-42
2021/06/03 02:02:46;;;;;;;8.20;7.45;;;15.50;93.30;;;;;;5074932;28;20290;-39
2021/06/03 02:05:15;;;;;;;7.05;6.50;;;15.40;93.40;;;;;;5074808;28;20876;-38
2021/06/03 02:07:42;;;;;;;7.65;6.80;;;15.40;93.50;;;;;;5074774;28;20684;-39
2021/06/03 02:10:11;;;;;;;8.00;7.20;;;15.40;93.60;;;;;;5074966;28;20211;-38
2021/06/03 02:12:45;;;;;;;7.30;6.68;;;15.40;93.80;;;;;;5074834;28;20227;-41
2021/06/03 02:15:15;;;;;;;7.80;7.05;;;15.40;94.00;;;;;;5074706;28;20207;-40
2021/06/03 02:17:47;;;;;;;7.70;7.00;;;15.30;94.10;;;;;;5075065;28;20291;-39
2021/06/03 02:20:18;;;;;;;8.20;7.40;;;15.30;94.40;;;;;;5074829;28;20211;-38
2021/06/03 02:22:49;;;;;;;7.50;6.80;;;15.30;94.60;;;;;;5074743;28;20207;-37
2021/06/03 02:25:17;;;;;;;8.27;7.47;;;15.20;94.80;;;;;;5074695;28;20302;-38
2021/06/03 02:27:47;;;;;;;7.20;6.50;;;15.20;94.90;;;;;;5074566;28;20297;-37
2021/06/03 02:30:18;;;;;;;8.45;7.22;;;15.10;95.40;;;;;;5074534;28;20268;-39
2021/06/03 02:32:49;;;;;;;7.22;6.53;;;15.10;95.30;;;;;;5074384;28;20266;-40
2021/06/03 02:35:17;;;;;;;8.55;7.45;;;15.10;95.50;;;;;;5073941;28;20253;-49
2021/06/03 02:37:47;;;;;;;7.70;6.97;;;15.00;95.60;;;;;;5074439;28;20234;-37
2021/06/03 02:40:17;;;;;;;8.63;7.82;;;15.00;95.70;;;;;;5074535;28;20215;-39
2021/06/03 02:42:46;;;;;;;9.13;7.05;;;15.00;95.90;;;;;;5074574;28;20199;-39
2021/06/03 02:45:16;;;;;;;8.57;7.78;;;15.00;96.00;;;;;;5074292;28;20338;-39
2021/06/03 02:47:44;;;;;;;7.93;7.18;;;15.00;96.20;;;;;;5074461;28;20340;-39
2021/06/03 02:50:15;;;;;;;8.32;7.57;;;14.90;96.30;;;;;;5074259;28;20393;-38
2021/06/03 02:52:43;;;;;;;9.02;8.18;;;14.80;96.50;;;;;;5074079;28;20318;-40
2021/06/03 02:55:14;;;;;;;9.80;7.55;;;14.80;96.60;;;;;;5074147;28;20207;-39
2021/06/03 02:57:42;;;;;;;8.63;6.93;;;14.80;96.70;;;;;;5074080;28;20211;-38
2021/06/03 03:00:11;;;;;;;7.90;6.97;;;14.80;96.80;;;;;;5073988;28;20303;-38
2021/06/03 03:02:39;;;;;;;7.85;7.25;;;14.80;96.90;;;;;;5074082;28;20247;-38
2021/06/03 03:05:08;;;;;;;7.03;6.47;;;14.70;97.10;;;;;;5073649;28;20317;-37
2021/06/03 03:07:37;;;;;;;7.63;6.78;;;14.70;97.30;;;;;;5073941;28;20215;-40
2021/06/03 03:10:07;;;;;;;8.80;7.93;;;14.70;97.50;;;;;;5074050;28;20210;-38
2021/06/03 03:12:35;;;;;;;8.02;7.32;;;14.70;97.60;;;;;;5073830;28;20241;-40
2021/06/03 03:15:03;;;;;;;8.10;7.30;;;14.60;97.70;;;;;;5073802;28;20307;-38
2021/06/03 03:17:31;;;;;;;7.97;7.28;;;14.60;97.80;;;;;;5073831;28;20211;-38
2021/06/03 03:19:58;;;;;;;8.13;7.40;;;14.60;98.20;;;;;;5074050;28;20431;-38
2021/06/03 03:22:28;;;;;;;8.55;7.82;;;14.60;98.10;;;;;;5073646;28;20214;-40
2021/06/03 03:24:57;;;;;;;8.30;7.50;;;14.50;98.10;;;;;;5073792;28;20235;-38
2021/06/03 03:27:24;;;;;;;8.00;7.30;;;14.50;98.20;;;;;;5073333;28;20524;-38
2021/06/03 03:29:51;;;;;;;8.30;7.50;;;14.50;98.30;;;;;;5073523;28;20253;-38
2021/06/03 03:32:19;;;;;;;7.85;7.25;;;14.50;98.40;;;;;;5073283;28;20660;-39
2021/06/03 03:34:46;;;;;;;8.82;7.88;;;14.50;98.50;;;;;;5073269;28;20204;-38
2021/06/03 03:37:14;;;;;;;9.32;7.55;;;14.60;98.90;;;;;;5073533;28;20231;-38
2021/06/03 03:39:41;;;;;;;8.50;7.82;;;14.50;98.60;;;;;;5073309;28;20298;-38
2021/06/03 03:42:10;;;;;;;8.30;7.60;;;14.60;98.70;;;;;;5073173;28;20207;-39
2021/06/03 03:44:38;;;;;;;11.35;7.75;;;14.60;98.70;;;;;;5072945;28;20243;-38
2021/06/03 03:47:06;;;;;;;9.45;8.48;;;14.60;98.70;;;;;;5072356;28;20211;-41
2021/06/03 03:49:37;;;;;;;8.18;7.45;;;14.60;98.70;;;;;;5073118;28;20243;-38
2021/06/03 03:52:06;;;;;;;8.63;7.65;;;14.70;98.80;;;;;;5072940;28;20324;-38
2021/06/03 03:54:33;;;;;;;9.77;7.22;;;14.80;98.80;;;;;;5072952;28;20298;-39
2021/06/03 03:57:01;;;;;;;7.78;7.00;;;14.80;98.80;;;;;;5072931;28;20207;-38
2021/06/03 03:59:30;;;;;;;8.25;7.53;;;14.80;98.90;;;;;;5072892;28;20636;-38
2021/06/03 04:01:58;;;;;;;8.50;7.70;;;14.80;98.90;;;;;;5072567;28;20301;-38
2021/06/03 04:04:26;;;;;;;8.25;7.47;;;14.90;99.10;;;;;;5072497;28;20681;-38
2021/06/03 04:06:53;;;;;;;8.65;7.78;;;14.90;99.10;;;;;;5072383;28;20334;-39
2021/06/03 04:09:21;;;;;;;7.45;6.85;;;15.00;99.20;;;;;;5072674;28;20294;-38
2021/06/03 04:11:49;;;;;;;8.80;7.90;;;15.00;99.20;;;;;;5072761;28;20294;-38
2021/06/03 04:14:17;;;;;;;8.30;7.47;;;15.20;99.20;;;;;;5072467;28;20220;-38
2021/06/03 04:16:46;;;;;;;8.30;7.45;;;15.30;99.20;;;;;;5072743;28;20292;-39
2021/06/03 04:19:13;;;;;;;10.10;7.60;;;15.30;99.10;;;;;;5072769;28;20211;-38
2021/06/03 04:21:41;;;;;;;8.43;7.63;;;15.40;99.10;;;;;;5072404;28;20298;-40
2021/06/03 04:24:12;;;;;;;10.48;8.95;;;15.50;99.00;;;;;;5072528;28;20223;-40
2021/06/03 04:26:40;;;;;;;10.05;9.05;;;15.50;99.00;;;;;;5072415;28;20243;-39
2021/06/03 04:29:07;;;;;;;9.75;8.75;;;15.60;99.00;;;;;;5072630;28;20215;-39
2021/06/03 04:31:35;;;;;;;9.27;8.45;;;15.60;98.90;;;;;;5072174;28;20658;-38
2021/06/03 04:34:04;;;;;;;7.95;7.20;;;15.70;98.90;;;;;;5072248;28;20276;-38
2021/06/03 04:36:31;;;;;;;8.80;8.00;;;15.80;98.80;;;;;;5072340;28;20294;-39
2021/06/03 04:38:59;;;;;;;7.72;7.13;;;15.90;98.80;;;;;;5072350;28;20207;-37
2021/06/03 04:41:26;;;;;;;7.85;6.93;;;15.90;98.80;;;;;;5072473;28;20207;-37
2021/06/03 04:43:54;;;;;;;8.60;7.80;;;16.00;98.80;;;;;;5072311;28;20332;-37
2021/06/03 04:46:21;;;;;;;7.78;7.15;;;16.10;98.70;;;;;;5072319;28;20290;-37
2021/06/03 04:48:49;;;;;;;8.10;7.40;;;16.20;98.60;;;;;;5072090;28;20207;-38
2021/06/03 04:51:18;;;;;;;7.93;7.32;;;16.20;98.60;;;;;;5072217;28;20230;-38
2021/06/03 04:53:45;;;;;;;6.75;6.22;;;16.30;98.70;;;;;;5071994;28;20251;-39
2021/06/03 04:56:13;;;;;;;10.48;8.07;;;16.40;98.50;;;;;;5071987;28;20207;-38
2021/06/03 04:58:40;;;;;;;7.32;6.72;;;16.40;98.40;;;;;;5072082;28;20207;-40
2021/06/03 05:01:07;;;;;;;7.47;6.78;;;16.50;98.40;;;;;;5072207;28;20594;-37
2021/06/03 05:03:35;;;;;;;8.07;7.38;;;16.60;98.40;;;;;;5072081;28;20267;-37
2021/06/03 05:06:02;;;;;;;11.77;8.18;;;16.70;98.30;;;;;;5071918;28;20247;-38
2021/06/03 05:08:31;;;;;;;8.43;7.50;;;16.70;98.30;;;;;;5071909;28;20677;-37
2021/06/03 05:10:58;;;;;;;8.27;7.43;;;16.80;98.20;;;;;;5071830;28;20249;-37
2021/06/03 05:13:27;;;;;;;8.88;7.93;;;16.90;98.20;;;;;;5071923;28;20258;-37
2021/06/03 05:15:54;;;;;;;7.47;6.80;;;17.00;98.10;;;;;;5071868;28;20243;-37
2021/06/03 05:18:22;;;;;;;7.88;7.25;;;17.10;98.10;;;;;;5071845;28;20612;-38
2021/06/03 05:20:50;;;;;;;7.97;7.22;;;17.20;98.00;;;;;;5071611;28;20298;-38
2021/06/03 05:23:17;;;;;;;7.80;7.20;;;17.20;97.90;;;;;;5079787;28;20258;-38
2021/06/03 05:25:46;;;;;;;7.63;7.00;;;17.40;97.80;;;;;;5071735;28;20341;-39
2021/06/03 05:28:15;;;;;;;7.50;6.75;;;17.50;97.70;;;;;;5071554;28;20298;-38
2021/06/03 05:30:43;;;;;;;8.90;7.85;;;17.70;97.50;;;;;;5071820;28;20298;-38
2021/06/03 05:33:10;;;;;;;8.05;7.25;;;17.80;97.50;;;;;;5071607;28;20224;-41
2021/06/03 05:35:38;;;;;;;7.30;6.63;;;17.90;97.30;;;;;;5071723;28;20211;-39
2021/06/03 05:38:05;;;;;;;6.97;6.38;;;18.00;97.20;;;;;;5071802;28;20207;-40
2021/06/03 05:40:33;;;;;;;7.40;6.70;;;18.10;97.10;;;;;;5071788;28;20207;-40
2021/06/03 05:43:02;;;;;;;7.57;6.38;;;18.20;96.90;;;;;;5071762;28;20203;-40
2021/06/03 05:45:30;;;;;;;7.65;6.18;;;18.40;96.80;;;;;;5071614;28;20740;-40
2021/06/03 05:47:58;;;;;;;6.72;6.07;;;18.50;96.90;;;;;;5071521;28;20223;-39
2021/06/03 05:50:26;;;;;;;7.20;6.50;;;18.70;96.40;;;;;;5071807;28;20590;-38
2021/06/03 05:52:58;;;;;;;8.02;6.18;;;18.80;96.20;;;;;;5073099;28;20258;-42
2021/06/03 05:55:27;;;;;;;7.20;6.55;;;18.90;96.10;;;;;;5075185;28;20239;-39
2021/06/03 05:57:55;;;;;;;7.00;6.30;;;19.00;96.10;;;;;;5071465;28;20265;-39
2021/06/03 06:00:28;;;;;;;6.32;5.82;;;19.00;96.30;;;;;;5071312;28;20723;-39
2021/06/03 06:02:58;;;;;;;6.15;5.65;;;19.10;96.00;;;;;;5071411;28;20310;-39
2021/06/03 06:08:13;;;;;;;5.65;5.18;;;19.20;95.90;;;;;;5071422;28;20306;-40
2021/06/03 06:10:43;;;;;;;6.88;6.13;;;19.30;95.80;;;;;;5075067;28;20243;-39
2021/06/03 06:13:10;;;;;;;7.53;6.20;;;19.40;95.80;;;;;;5075333;28;20604;-39
2021/06/03 06:15:40;;;;;;;7.07;6.18;;;19.40;95.80;;;;;;5075120;28;20555;-39
2021/06/03 06:18:09;;;;;;;6.80;6.30;;;19.40;95.80;;;;;;5075057;28;20241;-40
2021/06/03 06:20:38;;;;;;;6.95;6.35;;;19.50;95.80;;;;;;5075064;28;20225;-39
2021/06/03 06:23:07;;;;;;;5.78;5.18;;;19.60;95.70;;;;;;5074784;28;20207;-38
2021/06/03 06:25:35;;;;;;;7.93;6.47;;;19.70;95.60;;;;;;5074764;28;20207;-39
2021/06/03 06:28:03;;;;;;;6.50;5.88;;;19.80;95.50;;;;;;5074797;28;20211;-39
2021/06/03 06:30:32;;;;;;;5.70;5.22;;;19.80;95.40;;;;;;5074647;28;20203;-40
2021/06/03 06:33:01;;;;;;;6.25;5.75;;;19.80;95.30;;;;;;5074744;28;20298;-39
2021/06/03 06:35:28;;;;;;;6.57;6.07;;;19.90;95.30;;;;;;5074672;28;20203;-39
2021/06/03 06:37:56;;;;;;;6.07;5.57;;;19.90;95.20;;;;;;5074440;28;20211;-39
2021/06/03 06:40:26;;;;;;;5.97;5.45;;;19.90;95.10;;;;;;5074702;28;20315;-38
2021/06/03 06:42:54;;;;;;;6.30;5.80;;;19.90;95.40;;;;;;5074485;28;20207;-38
2021/06/03 06:45:22;;;;;;;5.70;5.20;;;19.90;95.00;;;;;;5074513;28;20203;-40
2021/06/03 06:47:50;;;;;;;5.53;5.15;;;19.90;94.90;;;;;;5074374;28;20666;-39
2021/06/03 06:50:21;;;;;;;5.30;4.90;;;20.00;94.70;;;;;;5074313;28;20211;-39
2021/06/03 06:52:48;;;;;;;5.68;5.18;;;20.10;94.60;;;;;;5074142;28;20207;-39
2021/06/03 06:55:16;;;;;;;5.78;5.28;;;20.20;94.50;;;;;;5074148;28;20310;-39
2021/06/03 06:57:43;;;;;;;5.82;5.35;;;20.20;94.40;;;;;;5074110;28;20216;-38
2021/06/03 07:00:12;;;;;;;6.47;5.68;;;20.20;94.30;;;;;;5074183;28;20302;-39
2021/06/03 07:02:39;;;;;;;5.93;5.43;;;20.20;94.30;;;;;;5074066;28;20212;-39
2021/06/03 07:05:08;;;;;;;5.72;4.90;;;20.20;94.30;;;;;;5073658;28;20231;-39
2021/06/03 07:07:37;;;;;;;6.72;5.70;;;20.30;94.20;;;;;;5073813;28;20216;-39
2021/06/03 07:10:06;;;;;;;6.40;5.70;;;20.40;93.70;;;;;;5073937;28;20286;-39
2021/06/03 07:12:33;;;;;;;6.07;5.57;;;20.40;93.50;;;;;;5073786;28;20527;-40
2021/06/03 07:15:01;;;;;;;6.05;5.55;;;20.40;93.40;;;;;;5073712;28;20231;-43
2021/06/03 07:17:29;;;;;;;6.63;6.03;;;20.50;93.40;;;;;;5073203;28;20220;-39
2021/06/03 07:19:57;;;;;;;6.07;5.63;;;20.50;93.20;;;;;;5074006;28;20235;-39
2021/06/03 07:22:25;;;;;;;7.45;5.43;;;20.60;93.20;;;;;;5074250;28;20276;-40
2021/06/03 07:24:54;;;;;;;6.35;5.50;;;20.60;93.20;;;;;;5073950;28;20235;-39
2021/06/03 07:27:21;;;;;;;9.48;7.05;;;20.60;93.10;;;;;;5074050;28;20207;-40
2021/06/03 07:29:57;;;;;;;7.75;6.90;;;20.60;93.10;;;;;;5073734;28;20207;-39
2021/06/03 07:32:24;;;;;;;6.63;6.10;;;20.70;93.00;;;;;;5073941;28;20210;-39
2021/06/03 07:34:52;;;;;;;7.57;5.90;;;20.80;92.80;;;;;;5073773;28;20317;-39
2021/06/03 07:37:19;;;;;;;8.70;5.90;;;20.90;92.60;;;;;;5073534;28;20203;-39
2021/06/03 07:39:47;;;;;;;6.47;5.90;;;21.00;92.50;;;;;;5073500;28;20692;-39
2021/06/03 07:42:18;;;;;;;5.95;5.47;;;21.00;92.30;;;;;;5073502;28;20246;-39
2021/06/03 07:44:46;;;;;;;9.60;5.65;;;21.10;92.10;;;;;;5073345;28;20688;-39
2021/06/03 07:47:14;;;;;;;6.75;6.15;;;21.20;92.00;;;;;;5073020;28;20757;-39
2021/06/03 07:49:42;;;;;;;6.35;5.75;;;21.30;91.80;;;;;;5072993;28;20691;-39
2021/06/03 07:52:09;;;;;;;7.05;6.45;;;21.40;91.50;;;;;;5073131;28;20306;-40
2021/06/03 07:54:37;;;;;;;8.93;5.70;;;21.60;91.30;;;;;;5072923;28;20313;-39
2021/06/03 07:57:06;;;;;;;7.70;5.95;;;21.70;90.90;;;;;;5073879;28;20593;-40
2021/06/03 07:59:34;;;;;;;8.65;6.05;;;21.80;90.40;;;;;;5072701;28;20306;-40
2021/06/03 08:02:03;;;;;;;7.55;6.82;;;21.80;89.90;;;;;;5073064;28;20670;-41
2021/06/03 08:04:30;;;;;;;7.30;6.60;;;21.70;89.20;;;;;;5072853;28;20671;-40
2021/06/03 08:06:58;;;;;;;6.50;5.72;;;21.80;89.00;;;;;;5072593;28;20307;-40
2021/06/03 08:09:25;;;;;;;6.80;6.20;;;21.90;88.50;;;;;;5072699;28;20221;-41
2021/06/03 08:11:53;;;;;;;6.50;5.80;;;21.90;88.20;;;;;;5073089;28;20299;-40
2021/06/03 08:14:21;;;;;;;9.38;5.53;;;22.00;88.00;;;;;;5072649;28;20227;-40
2021/06/03 08:16:51;;;;;;;6.43;5.82;;;22.00;87.80;;;;;;5072552;28;20252;-38
2021/06/03 08:19:20;;;;;;;6.38;5.82;;;22.00;87.80;;;;;;5072509;28;20234;-38
2021/06/03 08:21:48;;;;;;;7.20;5.97;;;22.00;88.30;;;;;;5072116;28;20692;-40
2021/06/03 08:24:16;;;;;;;7.90;7.13;;;22.00;87.40;;;;;;5072086;28;20214;-40
2021/06/03 08:26:47;;;;;;;6.38;5.78;;;22.10;87.10;;;;;;5072355;28;20298;-40
2021/06/03 08:29:14;;;;;;;6.13;5.60;;;22.20;86.50;;;;;;5071907;28;20669;-40
2021/06/03 08:31:42;;;;;;;7.28;4.93;;;22.30;86.40;;;;;;5071260;28;20249;-40
2021/06/03 08:34:11;;;;;;;10.40;6.20;;;22.40;86.20;;;;;;5071675;28;20246;-40
2021/06/03 08:36:39;;;;;;;6.60;6.00;;;22.60;86.00;;;;;;5071902;28;20272;-40
2021/06/03 08:39:07;;;;;;;5.30;4.80;;;22.70;85.80;;;;;;5072118;28;20207;-43
2021/06/03 08:41:37;;;;;;;8.93;6.50;;;22.70;85.60;;;;;;5071836;28;20215;-44
2021/06/03 08:44:06;;;;;;;6.72;6.03;;;22.80;85.10;;;;;;5071852;28;20298;-41
2021/06/03 08:46:34;;;;;;;7.25;6.43;;;22.90;84.30;;;;;;5071759;28;20294;-41
2021/06/03 08:49:04;;;;;;;6.53;6.00;;;23.00;83.70;;;;;;5071444;28;20203;-41
2021/06/03 08:51:49;;;;;;;7.30;5.15;;;22.90;83.20;;;;;;5071753;28;20645;-40
2021/06/03 08:54:17;;;;;;;6.35;5.75;;;23.00;83.20;;;;;;5071273;28;20689;-44
2021/06/03 08:56:45;;;;;;;6.47;5.75;;;23.20;82.70;;;;;;5071360;28;20302;-42
2021/06/03 08:59:13;;;;;;;6.35;5.75;;;23.20;82.10;;;;;;5071446;28;20216;-42
2021/06/03 09:01:41;;;;;;;7.82;6.10;;;23.30;82.00;;;;;;5071463;28;20242;-41
2021/06/03 09:04:09;;;;;;;6.20;5.60;;;23.30;81.80;;;;;;5071758;28;20200;-40
2021/06/03 09:06:37;;;;;;;9.07;6.13;;;23.40;81.50;;;;;;5071602;28;20340;-41
2021/06/03 09:09:08;;;;;;;6.25;5.75;;;23.30;81.30;;;;;;5071641;28;20238;-41
2021/06/03 09:11:35;;;;;;;9.18;6.45;;;23.40;81.20;;;;;;5071605;28;20212;-41
2021/06/03 09:14:05;;;;;;;5.88;5.30;;;23.40;80.60;;;;;;5071564;28;20298;-40
2021/06/03 09:16:35;;;;;;;6.50;6.00;;;23.50;80.00;;;;;;5071859;28;20294;-40
2021/06/03 09:19:09;;;;;;;6.88;5.45;;;23.60;79.70;;;;;;5071760;28;20211;-41
2021/06/03 09:21:43;;;;;;;6.38;5.88;;;23.70;79.40;;;;;;5071742;28;20242;-39
2021/06/03 09:24:14;;;;;;;5.20;4.78;;;23.80;78.90;;;;;;5071428;28;20286;-43
2021/06/03 09:26:49;;;;;;;6.57;5.75;;;23.90;78.30;;;;;;5074458;28;20367;-40
2021/06/03 09:29:22;;;;;;;6.45;5.95;;;23.90;77.80;;;;;;5071552;28;20214;-39
2021/06/03 09:31:52;;;;;;;6.13;5.63;;;23.90;77.60;;;;;;5071601;28;20203;-41
2021/06/03 09:34:21;;;;;;;6.95;6.30;;;23.90;77.60;;;;;;5071549;28;20682;-40
2021/06/03 09:36:50;;;;;;;6.68;6.13;;;23.90;77.60;;;;;;5070683;28;20681;-39
2021/06/03 09:39:24;;;;;;;7.00;6.32;;;23.90;77.00;;;;;;5071290;28;20222;-40
2021/06/03 09:41:56;;;;;;;6.05;5.55;;;24.00;76.50;;;;;;5071397;28;20207;-39
2021/06/03 09:44:27;;;;;;;6.32;5.85;;;24.00;76.30;;;;;;5074706;28;20215;-40
2021/06/03 09:47:00;;;;;;;6.18;5.57;;;24.10;75.90;;;;;;5075301;28;20277;-40
2021/06/03 09:49:30;;;;;;;8.23;7.28;;;24.20;75.60;;;;;;5074925;28;20713;-40
2021/06/03 09:52:03;;;;;;;7.13;5.80;;;24.30;75.40;;;;;;5075140;28;20298;-39
2021/06/03 09:54:33;;;;;;;7.07;5.65;;;24.40;74.70;;;;;;5075717;28;20314;-40
2021/06/03 09:57:03;;;;;;;5.65;5.13;;;24.60;73.90;;;;;;5074909;28;20256;-40
2021/06/03 09:59:34;;;;;;;5.93;5.13;;;24.70;73.10;;;;;;5075093;28;20215;-39
2021/06/03 10:02:06;;;;;;;6.78;6.28;;;24.70;72.80;;;;;;5074993;28;20219;-41
2021/06/03 10:04:40;;;;;;;6.57;5.90;;;24.60;72.80;;;;;;5074952;28;20673;-40
2021/06/03 10:07:16;;;;;;;6.47;5.97;;;24.60;72.80;;;;;;5074843;28;20243;-40
2021/06/03 10:09:50;;;;;;;5.47;4.97;;;24.60;72.90;;;;;;5074607;28;20625;-41
2021/06/03 10:12:40;;;;;;;6.88;6.18;;;24.70;72.60;;;;;;5074579;28;20252;-42
2021/06/03 10:15:34;;;;;;;6.43;5.30;;;24.80;72.20;;;;;;5074569;28;20668;-41
2021/06/03 10:18:04;;;;;;;8.95;5.75;;;24.90;71.90;;;;;;5074849;28;20286;-40
2021/06/03 10:20:37;;;;;;;5.55;5.15;;;24.90;71.70;;;;;;5074754;28;20204;-40
2021/06/03 10:23:05;;;;;;;5.95;5.35;;;25.00;71.30;;;;;;5074606;28;20375;-40
2021/06/03 10:25:36;;;;;;;8.18;7.47;;;25.20;70.80;;;;;;5074741;28;20235;-41
2021/06/03 10:28:06;;;;;;;7.70;7.10;;;25.20;71.00;;;;;;5074714;28;20286;-41
2021/06/03 10:30:37;;;;;;;9.88;8.07;;;25.30;71.30;;;;;;5074626;28;20207;-41
2021/06/03 10:33:07;;;;;;;11.85;10.85;;;25.30;71.70;;;;;;5074263;28;20207;-40
2021/06/03 10:35:37;;;;;;;8.35;7.60;;;25.40;71.90;;;;;;5074299;28;20223;-40
2021/06/03 10:38:06;;;;;;;8.57;7.88;;;25.50;72.10;;;;;;5074671;28;20712;-41
2021/06/03 10:40:37;;;;;;;17.63;15.77;;;25.50;72.00;;;;;;5074287;28;20222;-42
2021/06/03 10:43:05;;;;;;;12.57;8.05;;;25.50;72.00;;;;;;5074392;28;20304;-41
2021/06/03 10:45:35;;;;;;;7.13;6.35;;;25.50;71.90;;;;;;5076061;28;20217;-41
2021/06/03 10:48:04;;;;;;;7.57;6.88;;;25.60;71.70;;;;;;5073916;28;20673;-40
2021/06/03 10:50:35;;;;;;;7.97;7.38;;;25.60;71.60;;;;;;5073883;28;20298;-41
2021/06/03 10:53:07;;;;;;;7.35;6.75;;;25.60;71.30;;;;;;5074174;28;20215;-41
2021/06/03 10:55:38;;;;;;;8.95;8.07;;;25.60;71.30;;;;;;5073309;28;20234;-41
2021/06/03 10:58:07;;;;;;;7.57;6.78;;;25.60;71.30;;;;;;5073685;28;20254;-43
2021/06/03 11:00:38;;;;;;;9.43;8.63;;;25.70;71.10;;;;;;5073071;28;20239;-40
2021/06/03 11:03:07;;;;;;;7.93;7.22;;;25.80;70.90;;;;;;5073312;28;20705;-40
2021/06/03 11:05:38;;;;;;;8.32;7.40;;;25.90;70.60;;;;;;5073501;28;20243;-40
2021/06/03 11:08:30;;;;;;;7.20;6.70;;;26.00;70.00;;;;;;5073807;28;20737;-41
2021/06/03 11:11:29;;;;;;;7.90;7.20;;;25.90;69.50;;;;;;5073726;28;20215;-41
2021/06/03 11:14:06;;;;;;;7.40;5.60;;;26.00;69.40;;;;;;5073998;28;20716;-41
2021/06/03 11:16:51;;;;;;;7.55;6.88;;;26.00;69.20;;;;;;5073681;28;20586;-42
2021/06/03 11:19:24;;;;;;;8.10;5.93;;;26.00;68.50;;;;;;5073578;28;20230;-40
2021/06/03 11:22:07;;;;;;;7.25;6.65;;;26.00;68.70;;;;;;5073562;28;20662;-39
2021/06/03 11:24:45;;;;;;;6.72;6.07;;;25.90;68.40;;;;;;5073597;28;20287;-40
2021/06/03 11:27:19;;;;;;;6.25;5.82;;;25.90;68.30;;;;;;5073463;28;20633;-40
2021/06/03 11:30:00;;;;;;;7.07;6.38;;;26.00;67.90;;;;;;5073508;28;20298;-40
2021/06/03 11:32:31;;;;;;;7.45;6.75;;;26.10;67.30;;;;;;5073470;28;20284;-40
2021/06/03 11:35:00;;;;;;;10.40;6.72;;;26.20;67.10;;;;;;5073120;28;20214;-40
2021/06/03 11:37:29;;;;;;;6.75;5.97;;;26.30;66.60;;;;;;5073071;28;20692;-41
2021/06/03 11:39:58;;;;;;;6.93;6.38;;;26.30;66.10;;;;;;5073144;28;20233;-40
2021/06/03 11:42:36;;;;;;;6.18;5.68;;;26.40;65.70;;;;;;5073314;28;20207;-39
2021/06/03 11:45:13;;;;;;;9.10;6.13;;;26.50;65.40;;;;;;5072939;28;20289;-38
2021/06/03 11:48:26;;;;;;;7.57;6.70;;;26.50;65.50;;;;;;5072933;28;20255;-39
2021/06/03 11:51:05;;;;;;;5.05;4.65;;;26.40;65.00;;;;;;5048418;28;20666;-43
2021/06/03 11:53:46;;;;;;;5.78;5.25;;;26.40;65.40;;;;;;5072897;28;20259;-40
2021/06/03 11:56:17;;;;;;;6.97;5.85;;;26.40;65.20;;;;;;5072655;28;20230;-40
2021/06/03 11:58:52;;;;;;;5.75;5.07;;;26.40;65.00;;;;;;5072371;28;20298;-40
2021/06/03 12:01:34;;;;;;;6.25;5.75;;;26.30;65.00;;;;;;5072902;28;20308;-42
2021/06/03 12:04:19;;;;;;;5.28;4.85;;;26.40;65.00;;;;;;5072663;28;20328;-39
2021/06/03 12:06:49;;;;;;;5.20;4.38;;;26.40;64.70;;;;;;5071452;28;20286;-40
2021/06/03 12:09:26;;;;;;;5.32;4.93;;;26.60;64.50;;;;;;5072396;28;20286;-40
2021/06/03 12:11:55;;;;;;;5.38;4.93;;;26.80;63.60;;;;;;5072565;28;20294;-40
2021/06/03 12:14:27;;;;;;;5.70;5.10;;;26.90;63.10;;;;;;5072378;28;20215;-40
2021/06/03 12:16:56;;;;;;;5.35;4.28;;;26.90;62.70;;;;;;5072616;28;20234;-40
2021/06/03 12:19:26;;;;;;;5.28;4.75;;;26.90;62.40;;;;;;5072223;28;20207;-41
2021/06/03 12:21:56;;;;;;;6.00;4.97;;;26.90;62.10;;;;;;5072644;28;20290;-41
2021/06/03 12:24:39;;;;;;;5.47;5.00;;;27.00;61.90;;;;;;5072295;28;20218;-41
2021/06/03 12:27:18;;;;;;;4.97;4.57;;;27.10;61.50;;;;;;5072113;28;20199;-40
2021/06/03 12:29:47;;;;;;;4.93;4.47;;;27.10;61.50;;;;;;5072183;28;20215;-40
2021/06/03 12:32:15;;;;;;;4.85;4.50;;;27.20;60.90;;;;;;5072269;28;20297;-41
2021/06/03 12:34:43;;;;;;;5.20;4.80;;;27.20;60.60;;;;;;5072589;28;20290;-41
2021/06/03 12:37:24;;;;;;;5.32;4.82;;;27.10;60.60;;;;;;5072433;28;20227;-41
2021/06/03 12:39:52;;;;;;;6.43;5.80;;;27.10;60.40;;;;;;5071735;28;20202;-40
2021/06/03 12:42:22;;;;;;;7.50;5.25;;;27.00;60.60;;;;;;5071635;28;20312;-41
2021/06/03 12:44:56;;;;;;;5.57;5.18;;;26.90;60.60;;;;;;5072164;28;20645;-40
2021/06/03 12:47:25;;;;;;;5.78;4.95;;;26.60;60.90;;;;;;5072207;28;20199;-41
2021/06/03 12:50:04;;;;;;;6.00;5.15;;;26.50;61.20;;;;;;5072256;28;20246;-40
2021/06/03 12:52:32;;;;;;;7.30;4.75;;;26.50;61.20;;;;;;5072047;28;20211;-40
2021/06/03 12:55:00;;;;;;;5.07;4.55;;;26.50;61.20;;;;;;5071873;28;20301;-40
2021/06/03 12:57:28;;;;;;;7.53;5.10;;;26.70;60.90;;;;;;5072013;28;20314;-40
2021/06/03 12:59:57;;;;;;;5.03;4.10;;;26.90;60.40;;;;;;5072053;28;20301;-45
2021/06/03 13:02:30;;;;;;;5.65;4.05;;;27.20;59.80;;;;;;5071780;28;20208;-40